createdAt,value
2018-10-06T00:00:17.859Z,96.86
2018-10-06T00:01:18.048Z,96.87
2018-10-06T00:02:18.586Z,96.80
2018-10-06T00:03:18.959Z,96.93
2018-10-06T00:04:19.194Z,96.47
2018-10-06T00:05:19.465Z,96.36
2018-10-06T00:06:19.697Z,96.59
2018-10-06T00:06:27.758Z,96.79
2018-10-06T00:07:27.885Z,96.78
2018-10-06T00:08:29.218Z,96.43
2018-10-06T00:09:29.504Z,96.11
2018-10-06T00:10:29.695Z,96.17
2018-10-06T00:11:29.983Z,95.98
2018-10-06T00:12:30.203Z,95.88
2018-10-06T00:13:30.180Z,95.85
2018-10-06T00:14:30.320Z,95.48
2018-10-06T00:15:30.669Z,95.43
2018-10-06T00:16:30.216Z,95.46
2018-10-06T00:17:31.873Z,95.76
2018-10-06T00:18:32.431Z,96.04
2018-10-06T00:19:32.581Z,96.45
2018-10-06T00:20:32.811Z,96.81
2018-10-06T00:21:32.981Z,96.86
2018-10-06T00:22:33.180Z,96.90
2018-10-06T00:23:33.587Z,97.12
2018-10-06T00:24:33.787Z,97.16
2018-10-06T00:25:34.040Z,96.85
2018-10-06T00:26:34.199Z,96.66
2018-10-06T00:27:34.403Z,97.02
2018-10-06T00:28:34.689Z,96.77
2018-10-06T00:29:35.069Z,97.05
2018-10-06T00:30:35.319Z,97.43
2018-10-06T00:31:35.475Z,97.51
2018-10-06T00:32:35.976Z,97.78
2018-10-06T00:33:35.124Z,97.78
2018-10-06T00:34:36.332Z,97.69
2018-10-06T00:35:36.570Z,97.58
2018-10-06T00:36:36.681Z,97.68
2018-10-06T00:37:37.139Z,97.46
2018-10-06T00:38:37.358Z,97.76
2018-10-06T00:39:37.481Z,97.90
2018-10-06T00:40:37.590Z,97.61
2018-10-06T00:41:37.775Z,97.18
2018-10-06T00:42:37.941Z,96.86
2018-10-06T00:43:38.197Z,96.33
2018-10-06T00:44:38.304Z,96.31
2018-10-06T00:45:38.461Z,96.12
2018-10-06T00:46:38.691Z,96.57
2018-10-06T00:47:38.993Z,96.54
2018-10-06T00:48:39.376Z,96.74
2018-10-06T00:49:39.562Z,96.16
2018-10-06T00:50:39.918Z,96.30
2018-10-06T00:51:40.088Z,96.78
2018-10-06T00:52:40.419Z,96.86
2018-10-06T00:52:48.767Z,97.65
2018-10-06T00:53:49.900Z,97.64
2018-10-06T00:54:50.121Z,97.70
2018-10-06T00:55:50.276Z,97.77
2018-10-06T00:56:50.623Z,97.55
2018-10-06T00:57:50.815Z,97.64
2018-10-06T00:58:51.093Z,97.60
2018-10-06T00:59:51.258Z,97.17
2018-10-06T01:00:51.437Z,97.15
2018-10-06T01:01:51.666Z,96.88
2018-10-06T01:02:51.934Z,96.87
2018-10-06T01:03:52.663Z,97.02
2018-10-06T01:04:52.979Z,96.62
2018-10-06T01:05:53.304Z,96.49
2018-10-06T01:06:53.466Z,96.56
2018-10-06T01:07:53.724Z,96.47
2018-10-06T01:08:53.858Z,96.73
2018-10-06T01:09:54.034Z,96.65
2018-10-06T01:10:54.224Z,96.63
2018-10-06T01:11:54.354Z,96.44
2018-10-06T01:12:54.561Z,96.53
2018-10-06T01:13:54.731Z,96.71
2018-10-06T01:14:54.985Z,96.59
2018-10-06T01:15:55.123Z,96.70
2018-10-06T01:16:55.386Z,97.07
2018-10-06T01:17:55.577Z,97.04
2018-10-06T01:18:55.873Z,97.06
2018-10-06T01:19:55.109Z,97.32
2018-10-06T01:20:56.273Z,96.95
2018-10-06T01:21:56.402Z,97.01
2018-10-06T01:22:56.611Z,97.09
2018-10-06T01:23:57.457Z,97.22
2018-10-06T01:24:57.652Z,97.43
2018-10-06T01:25:58.214Z,97.32
2018-10-06T01:26:58.447Z,97.41
2018-10-06T01:27:58.686Z,98.23
2018-10-06T01:28:59.153Z,98.35
2018-10-06T01:29:59.414Z,97.80
2018-10-06T01:30:59.646Z,97.46
2018-10-06T01:31:59.842Z,97.57
2018-10-06T01:32:59.970Z,97.06
2018-10-06T01:34:00.207Z,96.97
2018-10-06T01:35:00.383Z,97.23
2018-10-06T01:36:00.558Z,97.36
2018-10-06T01:37:00.837Z,97.62
2018-10-06T01:37:08.956Z,97.85
2018-10-06T01:38:10.175Z,97.88
2018-10-06T01:39:09.374Z,98.16
2018-10-06T01:40:10.567Z,98.13
2018-10-06T01:41:10.818Z,97.77
2018-10-06T01:42:10.937Z,97.71
2018-10-06T01:43:11.188Z,98.20
2018-10-06T01:44:11.436Z,97.91
2018-10-06T01:45:11.736Z,98.11
2018-10-06T01:46:11.932Z,98.01
2018-10-06T01:47:12.127Z,97.97
2018-10-06T01:48:12.392Z,97.64
2018-10-06T01:49:12.540Z,97.47
2018-10-06T01:50:12.715Z,97.31
2018-10-06T01:51:13.005Z,96.98
2018-10-06T01:52:12.117Z,96.78
2018-10-06T01:53:13.207Z,96.95
2018-10-06T01:54:13.520Z,97.40
2018-10-06T01:55:13.672Z,97.32
2018-10-06T01:56:13.947Z,97.46
2018-10-06T01:57:14.226Z,97.18
2018-10-06T01:58:14.374Z,97.49
2018-10-06T01:59:14.615Z,97.68
2018-10-06T02:00:14.772Z,97.56
2018-10-06T02:01:14.992Z,97.60
2018-10-06T02:02:15.118Z,97.26
2018-10-06T02:03:15.436Z,97.43
2018-10-06T02:04:15.632Z,97.70
2018-10-06T02:05:15.834Z,97.59
2018-10-06T02:06:16.106Z,97.04
2018-10-06T02:07:16.433Z,96.74
2018-10-06T02:08:16.767Z,96.66
2018-10-06T02:09:15.966Z,96.52
2018-10-06T02:10:17.192Z,96.59
2018-10-06T02:11:17.455Z,96.47
2018-10-06T02:12:17.655Z,96.19
2018-10-06T02:13:18.480Z,96.31
2018-10-06T02:14:18.785Z,96.14
2018-10-06T02:15:19.169Z,96.88
2018-10-06T02:16:19.367Z,96.78
2018-10-06T02:17:19.556Z,96.53
2018-10-06T02:18:19.741Z,96.47
2018-10-06T02:19:19.963Z,96.85
2018-10-06T02:20:20.154Z,96.64
2018-10-06T02:21:20.249Z,96.48
2018-10-06T02:22:20.718Z,96.95
